Time;durP1;ratioP1;P1;durP2;ratioP2;P2;SDS_P1;SDS_P2;PMS_P1;PMS_P2;Temp;Humidity;BMP_temperature;BMP_pressure;BME280_temperature;BME280_humidity;BME280_pressure;Samples;Min_cycle;Max_cycle;Signal;HPM_P1;HPM_P2
2023/03/18 00:00:57;;;;;;;2.73;1.80;;;;;7.90;93643.00;;;;7400677;19;20117;-76
2023/03/18 00:03:25;;;;;;;1.97;1.53;;;;;7.90;93648.00;;;;7398947;19;20655;-76
2023/03/18 00:06:14;;;;;;;6.43;1.70;;;;;7.80;93647.00;;;;7401548;19;20587;-76
2023/03/18 00:08:44;;;;;;;3.20;1.63;;;;;7.70;93641.00;;;;7401013;19;20157;-75
2023/03/18 00:11:22;;;;;;;5.20;1.63;;;;;7.70;93652.00;;;;7398984;19;20121;-76
2023/03/18 00:13:50;;;;;;;3.80;1.80;;;;;7.80;93656.00;;;;7400026;19;20495;-75
2023/03/18 00:16:25;;;;;;;2.13;1.47;;;;;7.90;93656.00;;;;7399351;19;20693;-75
2023/03/18 00:18:53;;;;;;;3.33;1.57;;;;;8.00;93650.00;;;;7400507;19;20208;-75
2023/03/18 00:21:28;;;;;;;2.90;1.50;;;;;7.80;93667.00;;;;7399453;19;20160;-75
2023/03/18 00:24:02;;;;;;;4.13;1.60;;;;;7.60;93658.00;;;;7401078;19;20140;-75
2023/03/18 00:26:36;;;;;;;5.00;1.60;;;;;7.60;93664.00;;;;7397731;19;20611;-75
2023/03/18 00:29:04;;;;;;;2.50;1.40;;;;;7.70;93658.00;;;;7398353;19;20125;-75
2023/03/18 00:31:45;;;;;;;2.83;1.63;;;;;7.70;93663.00;;;;7397671;19;20145;-75
2023/03/18 00:34:21;;;;;;;1.93;1.50;;;;;7.80;93671.00;;;;7400124;19;20454;-75
2023/03/18 00:36:55;;;;;;;4.60;1.57;;;;;7.90;93673.00;;;;7397399;19;20152;-75
2023/03/18 00:39:31;;;;;;;3.20;1.53;;;;;7.90;93683.00;;;;7398691;19;20141;-75
2023/03/18 00:42:09;;;;;;;2.57;1.37;;;;;8.00;93669.00;;;;7398625;19;20125;-75
2023/03/18 00:44:37;;;;;;;3.97;1.60;;;;;8.40;93678.00;;;;7389299;19;20587;-75
2023/03/18 00:47:11;;;;;;;3.03;1.60;;;;;8.60;93681.00;;;;7392995;19;20160;-75
2023/03/18 00:49:38;;;;;;;1.60;1.10;;;;;8.70;93675.00;;;;7397892;19;20140;-75
2023/03/18 00:52:12;;;;;;;4.00;1.40;;;;;8.90;93674.00;;;;7397819;19;20164;-76
2023/03/18 00:54:46;;;;;;;3.43;1.50;;;;;9.00;93677.00;;;;7397845;19;20141;-75
2023/03/18 00:57:14;;;;;;;2.80;1.30;;;;;9.00;93676.00;;;;7396501;19;20148;-75
2023/03/18 00:59:47;;;;;;;3.43;1.60;;;;;8.90;93673.00;;;;7399536;19;20133;-75
2023/03/18 01:02:16;;;;;;;4.33;1.60;;;;;8.80;93671.00;;;;7396125;19;20160;-75
2023/03/18 01:04:51;;;;;;;1.88;1.20;;;;;8.70;93673.00;;;;7397238;19;20145;-75
2023/03/18 01:07:18;;;;;;;2.45;1.42;;;;;8.50;93664.00;;;;7397432;19;20162;-75
2023/03/18 01:09:53;;;;;;;2.13;1.27;;;;;8.20;93676.00;;;;7398832;19;20116;-75
2023/03/18 01:12:22;;;;;;;2.83;1.40;;;;;8.10;93672.00;;;;7395032;19;20197;-75
2023/03/18 01:14:56;;;;;;;1.70;1.30;;;;;8.00;93674.00;;;;7396893;19;20584;-76
2023/03/18 01:17:24;;;;;;;3.67;1.60;;;;;7.80;93671.00;;;;7397543;19;21063;-75
2023/03/18 01:19:59;;;;;;;2.10;1.50;;;;;7.70;93675.00;;;;7398643;19;20496;-76
2023/03/18 01:22:41;;;;;;;3.77;1.20;;;;;7.70;93678.00;;;;7397627;19;20171;-76
2023/03/18 01:25:16;;;;;;;2.10;1.43;;;;;7.60;93668.00;;;;7396101;19;20125;-76
2023/03/18 01:27:44;;;;;;;2.03;1.40;;;;;7.50;93679.00;;;;7397123;19;20604;-76
2023/03/18 01:30:19;;;;;;;2.20;1.20;;;;;7.50;93681.00;;;;7396510;19;20219;-76
2023/03/18 01:32:54;;;;;;;2.97;1.40;;;;;7.40;93685.00;;;;7398745;19;20152;-76
2023/03/18 01:35:30;;;;;;;2.40;1.57;;;;;7.20;93675.00;;;;7397927;19;20592;-75
2023/03/18 01:37:59;;;;;;;2.83;1.23;;;;;7.20;93672.00;;;;7395800;19;20149;-76
2023/03/18 01:40:37;;;;;;;2.77;1.50;;;;;7.10;93670.00;;;;7398666;19;20153;-76
2023/03/18 01:43:15;;;;;;;1.13;1.03;;;;;7.20;93664.00;;;;7397283;19;20121;-76
2023/03/18 01:45:51;;;;;;;2.00;1.27;;;;;7.30;93672.00;;;;7396709;19;20125;-76
2023/03/18 01:48:24;;;;;;;8.00;1.70;;;;;7.20;93654.00;;;;7398340;19;20121;-76
2023/03/18 01:51:04;;;;;;;1.63;1.20;;;;;7.10;93660.00;;;;7395804;19;20146;-76
2023/03/18 01:53:40;;;;;;;1.40;1.20;;;;;7.10;93666.00;;;;7397874;19;20584;-75
2023/03/18 01:56:16;;;;;;;2.80;1.33;;;;;7.30;93671.00;;;;7396625;19;20197;-76
2023/03/18 01:58:51;;;;;;;3.43;1.20;;;;;7.20;93656.00;;;;7395112;19;20133;-76
2023/03/18 02:01:32;;;;;;;2.17;1.00;;;;;7.20;93665.00;;;;7397218;19;20584;-75
2023/03/18 02:04:09;;;;;;;2.10;1.23;;;;;7.00;93676.00;;;;7397146;19;20132;-76
2023/03/18 02:06:44;;;;;;;3.40;1.60;;;;;6.80;93663.00;;;;7395224;19;20132;-76
2023/03/18 02:09:12;;;;;;;1.80;1.50;;;;;6.90;93668.00;;;;7396267;19;20160;-75
2023/03/18 02:11:51;;;;;;;1.43;1.23;;;;;6.80;93657.00;;;;7395912;19;20138;-75
2023/03/18 02:14:24;;;;;;;4.87;1.47;;;;;6.90;93668.00;;;;7396080;19;20212;-75
2023/03/18 02:17:09;;;;;;;1.13;1.00;;;;;6.70;93654.00;;;;7393284;19;20140;-76
2023/03/18 02:19:57;;;;;;;5.03;1.40;;;;;6.60;93669.00;;;;7395240;19;20132;-76
2023/03/18 02:22:52;;;;;;;1.87;1.27;;;;;6.40;93659.00;;;;7396066;19;20587;-76
2023/03/18 02:25:52;;;;;;;2.13;1.40;;;;;6.30;93659.00;;;;7397015;19;20169;-76
2023/03/18 02:28:28;;;;;;;1.63;1.20;;;;;6.30;93659.00;;;;7395973;19;20125;-75
2023/03/18 02:31:09;;;;;;;3.80;1.50;;;;;6.30;93659.00;;;;7395390;19;20137;-76
2023/03/18 02:33:45;;;;;;;3.30;1.20;;;;;6.20;93671.00;;;;7396902;19;20132;-76
2023/03/18 02:36:27;;;;;;;8.07;1.50;;;;;6.20;93667.00;;;;7399205;19;20220;-75
2023/03/18 02:39:02;;;;;;;4.30;1.33;;;;;6.40;93659.00;;;;7403922;19;20611;-75
2023/03/18 02:41:33;;;;;;;8.00;1.67;;;;;6.70;93667.00;;;;7402229;19;20137;-76
2023/03/18 02:44:06;;;;;;;1.90;1.10;;;;;7.00;93658.00;;;;7403456;19;20611;-76
2023/03/18 02:46:55;;;;;;;3.33;1.30;;;;;7.30;93650.00;;;;7403170;19;20125;-76
2023/03/18 02:49:31;;;;;;;3.13;1.37;;;;;7.30;93657.00;;;;7403442;19;20121;-75
2023/03/18 02:52:05;;;;;;;2.43;1.00;;;;;7.50;93663.00;;;;7402485;19;20133;-76
2023/03/18 02:54:40;;;;;;;2.17;1.43;;;;;7.40;93666.00;;;;7403333;19;20146;-76
2023/03/18 02:57:13;;;;;;;2.47;1.20;;;;;7.30;93668.00;;;;7401153;19;20181;-75
2023/03/18 02:59:47;;;;;;;4.00;1.40;;;;;7.60;93667.00;;;;7395644;19;20136;-76
2023/03/18 03:02:21;;;;;;;1.63;1.20;;;;;7.60;93676.00;;;;7402344;19;20160;-76
2023/03/18 03:04:56;;;;;;;2.80;1.20;;;;;7.50;93664.00;;;;7403362;19;20204;-76
2023/03/18 03:07:26;;;;;;;1.93;1.30;;;;;7.40;93681.00;;;;7393960;19;20702;-76
2023/03/18 03:10:01;;;;;;;4.07;1.40;;;;;7.60;93675.00;;;;7402623;19;20128;-76
2023/03/18 03:12:30;;;;;;;2.83;1.40;;;;;7.60;93683.00;;;;7400577;19;20124;-76
2023/03/18 03:15:06;;;;;;;3.27;1.17;;;;;7.80;93682.00;;;;7402223;19;20598;-76
2023/03/18 03:17:34;;;;;;;4.40;1.17;;;;;7.80;93683.00;;;;7399804;19;20125;-76
2023/03/18 03:20:10;;;;;;;2.47;1.13;;;;;7.80;93678.00;;;;7402262;19;20127;-76
2023/03/18 03:22:37;;;;;;;7.03;1.30;;;;;7.60;93683.00;;;;7402124;19;20577;-76
2023/03/18 03:25:12;;;;;;;3.30;1.30;;;;;7.40;93689.00;;;;7401611;19;20121;-76
2023/03/18 03:27:40;;;;;;;4.17;1.10;;;;;7.30;93682.00;;;;7400726;19;20172;-76
2023/03/18 03:30:22;;;;;;;2.80;1.40;;;;;7.30;93678.00;;;;7399080;19;20132;-76
2023/03/18 03:32:56;;;;;;;2.07;1.20;;;;;7.30;93686.00;;;;7400046;19;20142;-76
2023/03/18 03:35:31;;;;;;;1.40;1.30;;;;;7.50;93684.00;;;;7396053;19;20124;-76
2023/03/18 03:38:06;;;;;;;10.93;1.77;;;;;7.50;93691.00;;;;7401627;19;20117;-76
2023/03/18 03:40:39;;;;;;;2.93;1.27;;;;;7.20;93686.00;;;;7401461;19;20624;-76
2023/03/18 03:43:10;;;;;;;1.23;1.10;;;;;7.00;93690.00;;;;7400938;19;20228;-76
2023/03/18 03:45:46;;;;;;;4.17;1.80;;;;;7.00;93700.00;;;;7400332;19;20133;-76
2023/03/18 03:48:22;;;;;;;3.40;1.57;;;;;6.90;93692.00;;;;7399363;19;20128;-76
2023/03/18 03:50:56;;;;;;;2.13;1.20;;;;;6.60;93690.00;;;;7400963;19;20596;-76
2023/03/18 03:53:23;;;;;;;2.90;1.47;;;;;6.40;93694.00;;;;7399192;19;20216;-76
2023/03/18 03:55:57;;;;;;;2.23;1.20;;;;;6.40;93697.00;;;;7398115;19;20142;-76
2023/03/18 03:58:26;;;;;;;2.03;1.20;;;;;6.30;93693.00;;;;7401919;19;20133;-76
2023/03/18 04:00:59;;;;;;;2.97;1.33;;;;;6.30;93698.00;;;;7398669;19;20178;-75
2023/03/18 04:03:33;;;;;;;6.43;1.30;;;;;6.50;93703.00;;;;7399047;19;20187;-75
2023/03/18 04:06:01;;;;;;;1.40;1.10;;;;;6.50;93696.00;;;;7399816;19;20129;-76
2023/03/18 04:08:28;;;;;;;2.57;1.13;;;;;6.40;93694.00;;;;7399998;19;20140;-76
2023/03/18 04:11:04;;;;;;;1.10;1.00;;;;;6.30;93698.00;;;;7400917;19;20124;-76
2023/03/18 04:13:32;;;;;;;1.57;1.23;;;;;6.40;93694.00;;;;7397111;19;20592;-76
2023/03/18 04:16:06;;;;;;;1.93;1.13;;;;;6.60;93699.00;;;;7400435;19;20166;-76
2023/03/18 04:18:34;;;;;;;7.53;1.40;;;;;6.70;93691.00;;;;7401015;19;20624;-75
2023/03/18 04:21:08;;;;;;;2.63;1.50;;;;;6.60;93701.00;;;;7400796;19;20577;-75
2023/03/18 04:23:35;;;;;;;2.93;1.20;;;;;6.60;93696.00;;;;7399207;19;20133;-75
2023/03/18 04:26:09;;;;;;;7.13;1.30;;;;;6.60;93688.00;;;;7399439;19;20144;-75
2023/03/18 04:28:37;;;;;;;1.93;1.13;;;;;6.60;93686.00;;;;7397828;19;20602;-76
2023/03/18 04:31:18;;;;;;;2.43;1.03;;;;;6.60;93695.00;;;;7397667;19;20169;-75
2023/03/18 04:33:46;;;;;;;3.27;1.27;;;;;6.70;93692.00;;;;7398230;19;20145;-75
2023/03/18 04:36:20;;;;;;;2.87;1.47;;;;;6.70;93684.00;;;;7399012;19;20172;-75
2023/03/18 04:38:48;;;;;;;2.67;1.30;;;;;6.80;93683.00;;;;7397008;19;20634;-75
2023/03/18 04:41:22;;;;;;;1.90;1.57;;;;;6.90;93686.00;;;;7400035;19;20137;-76
2023/03/18 04:43:50;;;;;;;2.13;1.20;;;;;6.90;93686.00;;;;7398422;19;20607;-76
2023/03/18 04:46:23;;;;;;;1.53;1.20;;;;;6.80;93690.00;;;;7396337;19;20176;-76
2023/03/18 04:48:58;;;;;;;3.00;1.30;;;;;6.50;93683.00;;;;7398131;19;20133;-76
2023/03/18 04:51:26;;;;;;;3.10;1.40;;;;;6.50;93689.00;;;;7399348;19;20596;-76
2023/03/18 04:54:01;;;;;;;3.00;1.10;;;;;6.40;93679.00;;;;7399864;19;20120;-75
2023/03/18 04:56:36;;;;;;;2.17;1.17;;;;;6.30;93681.00;;;;7396661;19;20145;-75
2023/03/18 04:59:11;;;;;;;4.03;1.77;;;;;6.30;93693.00;;;;7396781;19;20143;-76
2023/03/18 05:01:39;;;;;;;3.23;1.30;;;;;6.20;93696.00;;;;7398396;19;20139;-75
2023/03/18 05:04:13;;;;;;;2.13;1.10;;;;;6.10;93689.00;;;;7395151;19;20156;-75
2023/03/18 05:06:40;;;;;;;1.23;1.10;;;;;5.90;93692.00;;;;7397002;19;20140;-75
2023/03/18 05:09:16;;;;;;;1.70;1.10;;;;;5.60;93689.00;;;;7397411;19;20144;-76
2023/03/18 05:11:51;;;;;;;2.40;1.23;;;;;5.60;93690.00;;;;7396698;19;20196;-76
2023/03/18 05:14:27;;;;;;;3.80;1.03;;;;;5.60;93688.00;;;;7396272;19;20135;-75
2023/03/18 05:16:55;;;;;;;1.87;1.30;;;;;5.60;93694.00;;;;7396502;19;20591;-76
2023/03/18 05:19:29;;;;;;;7.20;1.40;;;;;5.50;93696.00;;;;7398561;19;20136;-76
2023/03/18 05:21:59;;;;;;;2.77;1.40;;;;;5.90;93690.00;;;;7398883;19;20640;-76
2023/03/18 05:24:34;;;;;;;2.10;1.10;;;;;5.90;93695.00;;;;7397471;19;20184;-76
2023/03/18 05:27:03;;;;;;;3.20;1.10;;;;;5.70;93697.00;;;;7396681;19;20136;-75
2023/03/18 05:29:47;;;;;;;3.13;1.20;;;;;5.60;93703.00;;;;7396025;19;20480;-76
2023/03/18 05:32:21;;;;;;;1.00;0.90;;;;;5.50;93697.00;;;;7396150;19;20153;-76
2023/03/18 05:34:57;;;;;;;6.10;1.87;;;;;5.60;93696.00;;;;7396675;19;20594;-76
2023/03/18 05:37:31;;;;;;;2.97;1.27;;;;;5.60;93703.00;;;;7397272;19;20141;-76
2023/03/18 05:40:08;;;;;;;2.10;1.00;;;;;5.70;93707.00;;;;7395768;19;21699;-76
2023/03/18 05:42:36;;;;;;;3.43;1.43;;;;;5.70;93709.00;;;;7394745;19;20160;-76
2023/03/18 05:45:23;;;;;;;1.80;1.30;;;;;5.70;93713.00;;;;7395904;19;20125;-76
2023/03/18 05:47:58;;;;;;;3.60;1.20;;;;;6.10;93704.00;;;;7398292;19;20195;-76
2023/03/18 05:50:35;;;;;;;2.33;1.27;;;;;6.40;93707.00;;;;7397217;19;20144;-76
2023/03/18 05:53:10;;;;;;;2.50;1.30;;;;;6.70;93712.00;;;;7395565;19;20209;-75
2023/03/18 05:55:39;;;;;;;4.87;1.27;;;;;6.80;93709.00;;;;7393412;19;20156;-74
2023/03/18 05:58:14;;;;;;;2.63;1.30;;;;;7.00;93711.00;;;;7397527;19;20121;-74
2023/03/18 06:00:49;;;;;;;2.40;1.37;;;;;7.20;93708.00;;;;7397483;19;20155;-75
2023/03/18 06:03:23;;;;;;;2.57;1.40;;;;;7.10;93713.00;;;;7392543;19;20183;-74
2023/03/18 06:05:58;;;;;;;2.13;1.20;;;;;7.20;93708.00;;;;7396434;19;20156;-75
2023/03/18 06:08:32;;;;;;;1.53;1.07;;;;;7.30;93717.00;;;;7396462;19;20148;-75
2023/03/18 06:11:07;;;;;;;3.93;1.33;;;;;7.40;93707.00;;;;7401718;19;20603;-76
2023/03/18 06:13:34;;;;;;;1.73;1.00;;;;;7.60;93702.00;;;;7403009;19;20121;-75
2023/03/18 06:16:08;;;;;;;2.43;1.30;;;;;7.70;93707.00;;;;7403026;19;20137;-75
2023/03/18 06:18:42;;;;;;;1.77;1.13;;;;;7.60;93703.00;;;;7404981;19;20149;-75
2023/03/18 06:21:16;;;;;;;2.37;1.37;;;;;7.80;93702.00;;;;7404917;19;20132;-75
2023/03/18 06:23:50;;;;;;;5.70;1.40;;;;;8.20;93699.00;;;;7404738;19;20148;-75
2023/03/18 06:26:28;;;;;;;2.63;1.37;;;;;8.50;93705.00;;;;7402646;19;20163;-75
2023/03/18 06:29:04;;;;;;;1.47;1.37;;;;;8.90;93701.00;;;;7403698;19;20440;-76
2023/03/18 06:31:44;;;;;;;2.77;1.40;;;;;9.10;93709.00;;;;7399274;19;20216;-75
2023/03/18 06:34:12;;;;;;;2.47;1.27;;;;;9.50;93711.00;;;;7398784;19;20139;-75
2023/03/18 06:36:48;;;;;;;1.48;1.17;;;;;9.80;93700.00;;;;7399606;19;20170;-74
2023/03/18 06:39:18;;;;;;;3.87;1.20;;;;;9.80;93695.00;;;;7402162;19;20156;-75
2023/03/18 06:41:53;;;;;;;2.58;1.27;;;;;9.90;93701.00;;;;7400501;19;20132;-75
2023/03/18 06:44:28;;;;;;;1.77;1.33;;;;;10.10;93702.00;;;;7399199;19;20175;-75
2023/03/18 06:46:56;;;;;;;4.10;1.38;;;;;10.40;93701.00;;;;7398300;19;20225;-75
2023/03/18 06:49:30;;;;;;;4.03;1.30;;;;;10.40;93698.00;;;;7396841;19;20184;-75
2023/03/18 06:52:04;;;;;;;1.53;1.20;;;;;10.50;93700.00;;;;7399881;19;20155;-75
2023/03/18 06:54:34;;;;;;;1.93;1.30;;;;;10.40;93696.00;;;;7393917;19;20121;-75
2023/03/18 06:57:10;;;;;;;2.33;1.25;;;;;10.90;93703.00;;;;7399287;19;20141;-75
2023/03/18 06:59:38;;;;;;;1.85;1.13;;;;;11.00;93703.00;;;;7399667;19;20181;-75
2023/03/18 07:02:13;;;;;;;6.95;1.50;;;;;11.50;93705.00;;;;7396486;19;20180;-75
2023/03/18 07:04:43;;;;;;;2.50;1.30;;;;;11.80;93701.00;;;;7394272;19;20132;-75
2023/03/18 07:07:17;;;;;;;3.58;1.10;;;;;12.20;93710.00;;;;7398464;19;20540;-75
2023/03/18 07:09:44;;;;;;;2.85;1.35;;;;;12.70;93711.00;;;;7399712;19;20129;-75
2023/03/18 07:12:18;;;;;;;3.63;1.20;;;;;12.50;93708.00;;;;7397245;19;20203;-75
2023/03/18 07:14:56;;;;;;;2.60;1.17;;;;;12.60;93711.00;;;;7382414;19;20592;-75
2023/03/18 07:17:23;;;;;;;2.25;1.30;;;;;13.10;93712.00;;;;7394872;19;20137;-75
2023/03/18 07:20:19;;;;;;;1.52;1.10;;;;;13.40;93710.00;;;;7399310;19;20145;-75
2023/03/18 07:22:47;;;;;;;3.55;1.10;;;;;13.70;93715.00;;;;7398914;19;20155;-74
2023/03/18 07:25:21;;;;;;;2.65;1.10;;;;;13.90;93726.00;;;;7399955;19;20143;-75
2023/03/18 07:27:49;;;;;;;2.70;1.20;;;;;13.40;93724.00;;;;7391104;19;20148;-74
2023/03/18 07:30:42;;;;;;;2.55;1.13;;;;;13.50;93720.00;;;;6898718;19;9713107;-75
2023/03/18 07:33:20;;;;;;;2.60;1.20;;;;;13.60;93723.00;;;;7395477;19;20144;-75
2023/03/18 07:35:55;;;;;;;4.78;1.15;;;;;14.20;93726.00;;;;7391786;19;20164;-75
2023/03/18 07:38:24;;;;;;;3.35;1.17;;;;;13.60;93726.00;;;;7394919;19;20141;-75
2023/03/18 07:40:51;;;;;;;2.65;1.33;;;;;13.90;93729.00;;;;7395873;19;20476;-75
2023/03/18 07:43:25;;;;;;;3.25;1.20;;;;;14.10;93731.00;;;;7396444;19;20137;-75
2023/03/18 07:45:59;;;;;;;3.08;1.77;;;;;14.40;93729.00;;;;7393857;19;20140;-76
2023/03/18 07:48:27;;;;;;;2.85;1.23;;;;;14.00;93741.00;;;;7395854;19;20125;-75
2023/03/18 07:51:01;;;;;;;2.17;1.17;;;;;14.20;93736.00;;;;7397706;19;20635;-75
2023/03/18 07:53:29;;;;;;;3.13;1.48;;;;;14.50;93740.00;;;;7390019;19;20144;-73
2023/03/18 07:56:04;;;;;;;2.90;1.25;;;;;15.00;93736.00;;;;7393324;19;20136;-75
2023/03/18 07:58:38;;;;;;;2.03;1.17;;;;;15.40;93738.00;;;;7395398;19;20136;-76
2023/03/18 08:01:14;;;;;;;2.38;1.67;;;;;15.50;93741.00;;;;7395325;19;20128;-73
2023/03/18 08:03:43;;;;;;;3.47;1.40;;;;;15.80;93737.00;;;;7389446;19;20247;-74
2023/03/18 08:06:17;;;;;;;2.38;1.20;;;;;15.20;93731.00;;;;7393200;19;20133;-74
2023/03/18 08:08:48;;;;;;;4.00;1.40;;;;;15.20;93744.00;;;;7397409;19;20133;-73
2023/03/18 08:11:22;;;;;;;4.35;1.15;;;;;15.60;93734.00;;;;7392758;19;20509;-74
2023/03/18 08:13:50;;;;;;;3.42;1.48;;;;;15.10;93739.00;;;;7398677;19;20954;-75
2023/03/18 08:16:25;;;;;;;4.43;1.30;;;;;15.60;93735.00;;;;7399163;19;20152;-75
2023/03/18 08:18:53;;;;;;;2.17;1.17;;;;;15.50;93736.00;;;;7395632;19;20142;-76
2023/03/18 08:21:28;;;;;;;5.50;1.60;;;;;15.70;93734.00;;;;7399116;19;20499;-74
2023/03/18 08:24:03;;;;;;;6.07;1.45;;;;;15.50;93740.00;;;;7397807;19;21998;-74
2023/03/18 08:26:36;;;;;;;2.10;0.93;;;;;16.10;93744.00;;;;7398219;19;20121;-74
2023/03/18 08:29:04;;;;;;;4.18;1.33;;;;;16.90;93738.00;;;;7399042;19;20221;-74
2023/03/18 08:31:45;;;;;;;2.30;1.10;;;;;17.00;93748.00;;;;7398628;19;20140;-74
2023/03/18 08:34:13;;;;;;;3.67;1.60;;;;;17.10;93733.00;;;;7397537;19;20132;-74
2023/03/18 08:36:47;;;;;;;3.92;1.38;;;;;17.40;93699.00;;;;7397282;19;20128;-73
2023/03/18 08:39:21;;;;;;;3.72;1.48;;;;;18.10;93738.00;;;;7395011;19;20132;-73
2023/03/18 08:41:55;;;;;;;6.07;1.40;;;;;18.90;93733.00;;;;7398184;19;20610;-74
2023/03/18 08:44:23;;;;;;;2.55;1.20;;;;;18.00;93739.00;;;;7396512;19;20176;-74
2023/03/18 08:46:50;;;;;;;3.35;1.30;;;;;18.80;93747.00;;;;7396618;19;20156;-74
2023/03/18 08:49:25;;;;;;;1.30;1.20;;;;;18.40;93747.00;;;;7400339;19;20623;-74
2023/03/18 08:51:53;;;;;;;2.88;1.27;;;;;18.80;93746.00;;;;7398759;19;20584;-74
2023/03/18 08:54:27;;;;;;;3.38;1.80;;;;;18.20;93756.00;;;;7397798;19;20139;-74
2023/03/18 08:56:55;;;;;;;5.28;1.40;;;;;17.20;93747.00;;;;7396954;19;20156;-74
2023/03/18 08:59:29;;;;;;;3.15;1.20;;;;;17.40;93743.00;;;;7398665;19;20148;-74
2023/03/18 09:01:58;;;;;;;3.92;1.60;;;;;18.60;93746.00;;;;7392652;19;20232;-74
2023/03/18 09:04:32;;;;;;;2.85;1.52;;;;;19.30;93741.00;;;;7393371;19;20154;-74
2023/03/18 09:07:07;;;;;;;2.20;1.45;;;;;19.30;93763.00;;;;7396258;19;20124;-74
2023/03/18 09:09:42;;;;;;;4.57;1.38;;;;;18.90;93739.00;;;;7395507;19;20129;-74
2023/03/18 09:12:11;;;;;;;2.17;1.58;;;;;19.00;93750.00;;;;7397418;19;20141;-74
2023/03/18 09:14:46;;;;;;;3.95;1.38;;;;;19.50;93738.00;;;;7393032;19;21076;-74
2023/03/18 09:17:19;;;;;;;3.63;2.08;;;;;19.60;93746.00;;;;7396610;19;20144;-74
2023/03/18 09:20:15;;;;;;;1.45;1.25;;;;;18.90;93756.00;;;;7398155;19;20143;-74
2023/03/18 09:22:50;;;;;;;3.38;1.60;;;;;19.10;93735.00;;;;7394853;19;20181;-74
2023/03/18 09:25:26;;;;;;;2.90;1.75;;;;;18.60;93746.00;;;;7396209;19;20124;-74
2023/03/18 09:27:53;;;;;;;1.83;1.20;;;;;19.20;93732.00;;;;7381859;19;20611;-74
2023/03/18 09:30:27;;;;;;;3.78;1.30;;;;;18.80;93736.00;;;;7394253;19;20171;-74
2023/03/18 09:33:10;;;;;;;4.20;1.20;;;;;18.30;93729.00;;;;7393196;19;20195;-74
2023/03/18 09:35:45;;;;;;;1.90;1.20;;;;;18.40;93729.00;;;;7396155;19;20137;-74
2023/03/18 09:38:18;;;;;;;3.25;1.27;;;;;19.70;93745.00;;;;7395895;19;20132;-74
2023/03/18 09:41:05;;;;;;;2.92;1.08;;;;;19.40;93731.00;;;;7395821;19;20152;-74
2023/03/18 09:44:12;;;;;;;2.70;1.30;;;;;20.20;93726.00;;;;7394022;19;20140;-74
2023/03/18 09:47:03;;;;;;;4.57;1.13;;;;;21.40;93713.00;;;;7399415;19;20140;-74
2023/03/18 09:49:42;;;;;;;3.20;1.40;;;;;19.80;93726.00;;;;7402343;19;20220;-73
2023/03/18 09:52:36;;;;;;;1.35;1.08;;;;;19.60;93733.00;;;;7404860;19;20140;-73
2023/03/18 09:55:38;;;;;;;3.90;1.48;;;;;19.20;93732.00;;;;7400947;19;20125;-73
2023/03/18 09:58:21;;;;;;;5.55;1.55;;;;;19.20;93733.00;;;;7403214;19;20144;-73
2023/03/18 10:00:54;;;;;;;3.33;1.65;;;;;18.70;93741.00;;;;7403005;19;20575;-73
2023/03/18 10:04:01;;;;;;;4.68;1.80;;;;;19.50;93727.00;;;;7396388;19;20176;-73
2023/03/18 10:06:41;;;;;;;2.83;1.40;;;;;19.00;93742.00;;;;7403459;19;20160;-73
2023/03/18 10:09:19;;;;;;;5.10;1.70;;;;;18.70;93736.00;;;;7401641;19;20595;-73
2023/03/18 10:11:53;;;;;;;3.22;1.77;;;;;18.80;93740.00;;;;7399627;19;20176;-73
2023/03/18 10:14:55;;;;;;;5.30;1.50;;;;;19.40;93738.00;;;;7396786;19;20629;-72
2023/03/18 10:17:40;;;;;;;3.80;1.50;;;;;20.20;93725.00;;;;7401852;19;20532;-72
2023/03/18 10:20:35;;;;;;;3.38;1.55;;;;;20.50;93736.00;;;;7402699;19;20160;-72
2023/03/18 10:23:24;;;;;;;3.45;1.92;;;;;19.60;93734.00;;;;7402099;19;20605;-72
2023/03/18 10:25:56;;;;;;;2.78;1.35;;;;;19.70;93727.00;;;;7401267;19;20125;-71
2023/03/18 10:28:46;;;;;;;2.70;1.30;;;;;19.80;93730.00;;;;7399247;19;20124;-72
2023/03/18 10:31:58;;;;;;;1.23;0.95;;;;;20.10;93722.00;;;;7399680;19;20588;-72
2023/03/18 10:34:44;;;;;;;2.25;1.52;;;;;20.40;93728.00;;;;7399670;19;20192;-72
2023/03/18 10:37:40;;;;;;;2.30;1.30;;;;;21.60;93727.00;;;;7403426;19;20497;-73
2023/03/18 10:40:15;;;;;;;1.67;1.20;;;;;22.30;93732.00;;;;7400594;19;20156;-73
2023/03/18 10:42:52;;;;;;;2.60;1.48;;;;;21.30;93724.00;;;;7402329;19;20240;-72
2023/03/18 10:45:22;;;;;;;2.22;1.30;;;;;21.20;93718.00;;;;7399773;19;20768;-72
2023/03/18 10:48:16;;;;;;;1.70;1.30;;;;;20.60;93716.00;;;;7404006;19;20132;-72
2023/03/18 10:50:55;;;;;;;4.88;1.40;;;;;20.00;93725.00;;;;7402227;19;20124;-72
2023/03/18 10:53:55;;;;;;;3.15;1.30;;;;;20.20;93721.00;;;;7402471;19;20136;-72
2023/03/18 10:56:30;;;;;;;3.65;1.33;;;;;20.70;93720.00;;;;7402649;19;20125;-71
2023/03/18 10:59:17;;;;;;;2.45;1.25;;;;;20.90;93705.00;;;;7401364;19;20136;-72
2023/03/18 11:02:19;;;;;;;3.83;1.30;;;;;22.40;93704.00;;;;7399996;19;20199;-71
2023/03/18 11:05:00;;;;;;;4.65;1.75;;;;;22.20;93704.00;;;;7396934;19;20140;-72
2023/03/18 11:07:53;;;;;;;1.85;1.05;;;;;21.90;93703.00;;;;7400145;19;20163;-72
2023/03/18 11:10:35;;;;;;;2.97;1.40;;;;;21.20;93695.00;;;;7398964;19;20153;-71
2023/03/18 11:13:05;;;;;;;2.45;1.20;;;;;21.40;93694.00;;;;7399588;19;20132;-73
2023/03/18 11:15:49;;;;;;;4.60;1.40;;;;;21.10;93694.00;;;;7395640;19;20166;-73
2023/03/18 11:18:25;;;;;;;2.05;1.20;;;;;21.10;93695.00;;;;7396909;19;20627;-73
2023/03/18 11:21:03;;;;;;;3.10;1.35;;;;;21.80;93693.00;;;;7397069;19;20196;-72
2023/03/18 11:26:26;;;;;;;3.65;1.98;;;;;21.30;93688.00;;;;7397446;19;20153;-72
2023/03/18 11:29:12;;;;;;;4.30;3.10;;;;;21.30;93692.00;;;;7402296;19;20659;-71
2023/03/18 11:31:56;;;;;;;4.10;1.30;;;;;21.50;93700.00;;;;7397182;19;20160;-72
2023/03/18 11:34:33;;;;;;;2.20;1.27;;;;;22.20;93695.00;;;;7399233;19;20133;-72
2023/03/18 11:37:17;;;;;;;1.85;1.17;;;;;22.10;93699.00;;;;7400642;19;20587;-72
2023/03/18 11:40:05;;;;;;;2.20;1.33;;;;;22.20;93696.00;;;;7398141;19;20475;-72
2023/03/18 11:42:43;;;;;;;2.47;1.13;;;;;21.50;93698.00;;;;7399049;19;20143;-73
2023/03/18 11:45:52;;;;;;;1.13;0.93;;;;;22.70;93687.00;;;;7398239;19;20718;-72
2023/03/18 11:48:35;;;;;;;4.07;1.40;;;;;23.60;93678.00;;;;7399738;19;20155;-73
2023/03/18 11:51:22;;;;;;;4.22;1.13;;;;;22.70;93685.00;;;;7398835;19;20213;-74
2023/03/18 11:54:10;;;;;;;3.20;2.30;;;;;22.50;93673.00;;;;7395731;19;20116;-73
2023/03/18 11:57:16;;;;;;;3.65;1.20;;;;;22.50;93686.00;;;;7394391;19;20141;-72
2023/03/18 12:00:16;;;;;;;1.92;1.15;;;;;21.50;93680.00;;;;7399731;19;20591;-72
2023/03/18 12:03:34;;;;;;;2.33;1.25;;;;;22.10;93667.00;;;;7393474;19;20180;-72
2023/03/18 12:06:18;;;;;;;3.03;1.20;;;;;23.30;93665.00;;;;7397342;19;20144;-73
2023/03/18 12:09:09;;;;;;;1.52;1.15;;;;;23.90;93664.00;;;;7394452;19;20163;-72
2023/03/18 12:12:20;;;;;;;2.60;1.30;;;;;22.70;93660.00;;;;7400405;19;20136;-74
2023/03/18 12:15:11;;;;;;;1.17;1.08;;;;;23.40;93678.00;;;;7394919;19;20161;-73
2023/03/18 12:17:53;;;;;;;3.20;1.20;;;;;23.60;93658.00;;;;7400267;19;20150;-73
2023/03/18 12:20:42;;;;;;;2.17;1.10;;;;;24.20;93658.00;;;;7397355;19;20141;-73
2023/03/18 12:23:54;;;;;;;4.57;1.25;;;;;23.30;93666.00;;;;7400374;19;20592;-72
2023/03/18 12:27:12;;;;;;;2.20;1.10;;;;;22.20;93672.00;;;;7397194;19;20148;-73
2023/03/18 12:30:10;;;;;;;2.70;1.38;;;;;21.30;93651.00;;;;7395734;19;20149;-72
2023/03/18 12:33:05;;;;;;;3.92;1.48;;;;;20.90;93663.00;;;;7390463;19;20195;-73
2023/03/18 12:36:01;;;;;;;3.72;1.73;;;;;20.80;93659.00;;;;7391801;19;20140;-72
2023/03/18 12:38:40;;;;;;;2.80;1.50;;;;;23.00;93654.00;;;;7396729;19;20505;-72
2023/03/18 12:41:24;;;;;;;3.15;1.38;;;;;24.40;93653.00;;;;7398526;19;20133;-72
2023/03/18 12:44:16;;;;;;;2.38;1.35;;;;;24.80;93674.00;;;;7399012;19;20129;-73
2023/03/18 12:46:55;;;;;;;3.53;1.73;;;;;23.00;93655.00;;;;7396663;19;20192;-72
2023/03/18 12:49:31;;;;;;;2.85;1.63;;;;;21.60;93659.00;;;;7398495;19;20125;-72
2023/03/18 12:52:37;;;;;;;4.45;1.65;;;;;21.70;93629.00;;;;7396058;19;20468;-72
2023/03/18 12:55:17;;;;;;;2.40;1.55;;;;;21.50;93667.00;;;;7394661;19;20155;-72
2023/03/18 12:57:57;;;;;;;4.70;1.55;;;;;20.50;93664.00;;;;7395091;19;20137;-71
2023/03/18 13:00:24;;;;;;;3.28;1.50;;;;;21.60;93664.00;;;;7394677;19;20137;-71
2023/03/18 13:03:09;;;;;;;4.97;1.90;;;;;21.90;93660.00;;;;7388261;19;20838;-72
2023/03/18 13:06:03;;;;;;;3.38;1.70;;;;;21.60;93651.00;;;;7398634;19;20141;-72
2023/03/18 13:08:58;;;;;;;2.65;1.65;;;;;21.90;93656.00;;;;7388968;19;20157;-70
2023/03/18 13:11:54;;;;;;;4.80;1.70;;;;;22.60;93668.00;;;;7396523;19;20141;-71
2023/03/18 13:14:51;;;;;;;4.63;1.65;;;;;23.20;93647.00;;;;7393892;19;20660;-70
2023/03/18 13:17:37;;;;;;;3.20;1.80;;;;;23.80;93655.00;;;;7393876;19;20156;-70